메인 페이지
METAR-TAF:

METAR-TAF

공항 :

Reynosa, 멕시코

위도: 26-01N, 경도: 098-14W, 고도: 39m

현재 날씨관측

예보는 8 시간 17분 전, 01:40시(UTC)에 발표되었습니다.
동남동10kt, 순간 최대 풍속 20kt
온도 30°C
습도 70%
기압 1012 hPa
시정: 9.7km
고도 2500ft 상공 구름 보통

METAR: MMRX 300140Z 12010G20KT 6SM SCT025 30/24 A2988 RMK 8/500 HZY

시각: 04:57 (09:57 UTC)

예보

예보는 4 시간 11분 전, 05:46시(UTC)에 발표되었습니다.
예보 대상 시간: 30일 06시부터 31일 06시까지 (UTC)
남동10kt
시정: 8.0km
고도 1500ft 상공 구름 많음
연무
일시적
30일 10시부터 30일 14시까지 (UTC)
시정: 4.8km
고도 1000ft 상공 흐림
박무
30일 1500시부터 (UTC)
동남동10kt
시정: 10km
고도 2000ft 상공 구름 보통
30일 2000시부터 (UTC)
남동10kt, 순간 최대 풍속 20kt
시정: 10km
맑음

TAF: MMRX 300546Z 3006/3106 14010KT 5SM HZ BKN015 TEMPO 3010/3014 3SM BR OVC010 FM301500 12010KT P6SM SCT020 FM302000 13010G20KT P6SM SKC

4,000개 이상의 공항 관측 자료 및 예보 (METAR 및 TAF 보고).

지도상에서 검색 가능한 기상관측소가 노란 점과 빨간 점으로 표시되어 있습니다.

기상관측소 명을 보려면 표시 위로 마우스를 이동하세요.

날씨 관측과 예보를 보려면 클릭하세요.

지도 변경 : 확대하려면 엑스 표시가 있는 녹색 버튼, 축소하려면 빼기 표시가 있는 녹색 버튼, 다음 페이지의 지도를 보려면 녹색 화살표를 클릭하세요.


METAR-TAF: